Time;durP1;ratioP1;P1;durP2;ratioP2;P2;SDS_P1;SDS_P2;PMS_P1;PMS_P2;Temp;Humidity;BMP_temperature;BMP_pressure;BME280_temperature;BME280_humidity;BME280_pressure;Samples;Min_cycle;Max_cycle;Signal;HPM_P1;HPM_P2
2022/03/20 00:01:16;;;;;;;4.70;2.65;;;;;;;7.56;45.29;101774.00;5110669;28;20085;-60
2022/03/20 00:03:43;;;;;;;5.75;2.78;;;;;;;7.54;45.18;101766.16;5110857;28;20130;-60
2022/03/20 00:06:09;;;;;;;7.70;2.85;;;;;;;7.54;45.27;101770.53;5110968;28;20403;-62
2022/03/20 00:08:36;;;;;;;5.15;2.80;;;;;;;7.53;45.47;101761.81;5110780;28;20468;-61
2022/03/20 00:11:04;;;;;;;5.03;2.95;;;;;;;7.51;45.45;101760.09;5110946;28;20059;-61
2022/03/20 00:13:30;;;;;;;5.65;2.63;;;;;;;7.47;45.84;101759.25;5110678;28;20044;-60
2022/03/20 00:15:57;;;;;;;6.43;3.42;;;;;;;7.42;45.66;101748.84;5110622;28;20051;-63
2022/03/20 00:18:26;;;;;;;6.95;2.83;;;;;;;7.39;45.73;101753.22;5110722;28;20056;-61
2022/03/20 00:20:56;;;;;;;7.93;2.97;;;;;;;7.34;46.75;101747.16;5110285;28;20109;-61
2022/03/20 00:23:24;;;;;;;5.15;2.97;;;;;;;7.30;46.04;101741.97;5109331;28;20051;-60
2022/03/20 00:25:52;;;;;;;9.63;3.13;;;;;;;7.27;46.38;101735.91;5114229;28;20052;-62
2022/03/20 00:28:20;;;;;;;5.30;3.13;;;;;;;7.23;46.44;101729.84;5116059;28;20044;-60
2022/03/20 00:30:47;;;;;;;8.63;3.13;;;;;;;7.21;46.34;101735.97;5116047;28;20050;-61
2022/03/20 00:33:15;;;;;;;7.57;3.15;;;;;;;7.17;46.44;101732.50;5116030;28;20051;-60
2022/03/20 00:35:42;;;;;;;5.28;3.03;;;;;;;7.13;46.48;101721.19;5117205;27;20466;-60
2022/03/20 00:38:09;;;;;;;7.57;3.55;;;;;;;7.10;46.54;101721.22;5116080;28;20499;-60
2022/03/20 00:40:36;;;;;;;7.63;3.95;;;;;;;7.06;46.63;101719.53;5117260;27;20055;-62
2022/03/20 00:43:05;;;;;;;6.15;3.80;;;;;;;7.02;47.08;101713.47;5117267;27;20043;-60
2022/03/20 00:45:32;;;;;;;10.30;3.50;;;;;;;6.99;46.82;101712.63;5116002;28;20050;-60
2022/03/20 00:47:58;;;;;;;9.60;4.50;;;;;;;6.98;46.96;101708.25;5117316;27;20055;-60
2022/03/20 00:50:25;;;;;;;7.65;4.35;;;;;;;6.96;47.00;101704.81;5116972;27;20073;-60
2022/03/20 00:52:52;;;;;;;11.48;4.18;;;;;;;6.94;47.04;101701.31;5117450;28;20108;-61
2022/03/20 00:55:19;;;;;;;11.32;4.57;;;;;;;6.90;46.97;101696.13;5117532;27;20101;-62
2022/03/20 00:57:46;;;;;;;12.43;5.00;;;;;;;6.89;47.52;101697.00;5117212;27;20047;-60
2022/03/20 01:00:13;;;;;;;9.18;4.60;;;;;;;6.87;47.38;101693.53;5116922;27;20152;-62
2022/03/20 01:02:40;;;;;;;8.77;4.72;;;;;;;6.85;47.57;101702.28;5116983;27;20039;-61
2022/03/20 01:05:08;;;;;;;8.43;4.30;;;;;;;6.83;47.62;101696.19;5115561;28;20100;-61
2022/03/20 01:07:36;;;;;;;9.75;4.65;;;;;;;6.80;47.67;101696.25;5117211;27;20047;-60
2022/03/20 01:10:07;;;;;;;9.35;5.00;;;;;;;6.76;49.04;101684.91;5115630;28;20052;-61
2022/03/20 01:12:37;;;;;;;8.75;5.03;;;;;;;6.74;47.61;101687.56;5115680;28;20059;-63
2022/03/20 01:15:06;;;;;;;9.20;5.25;;;;;;;6.73;48.02;101682.34;5115547;28;20051;-59
2022/03/20 01:17:34;;;;;;;8.52;5.10;;;;;;;6.72;47.79;101683.22;5116755;27;20446;-60
2022/03/20 01:20:01;;;;;;;8.70;4.45;;;;;;;6.71;47.82;101674.50;5115442;28;20055;-61
2022/03/20 01:22:28;;;;;;;7.63;5.30;;;;;;;6.70;48.00;101661.44;5115656;28;20480;-60
2022/03/20 01:24:54;;;;;;;11.65;5.55;;;;;;;6.68;47.82;101665.81;5116993;27;20048;-60
2022/03/20 01:27:21;;;;;;;10.43;5.63;;;;;;;6.67;48.03;101653.59;5115123;28;20059;-62
2022/03/20 01:29:47;;;;;;;11.52;6.03;;;;;;;6.65;48.10;101651.00;5116696;27;20047;-60
2022/03/20 01:32:14;;;;;;;11.90;5.53;;;;;;;6.65;48.09;101651.88;5116798;28;20044;-62
2022/03/20 01:34:41;;;;;;;8.05;5.55;;;;;;;6.64;48.03;101644.03;5116698;28;20055;-60
2022/03/20 01:37:08;;;;;;;12.18;6.22;;;;;;;6.61;47.99;101637.09;5113348;28;20089;-63
2022/03/20 01:39:35;;;;;;;11.75;5.70;;;;;;;6.59;47.99;101632.75;5113555;28;20750;-60
2022/03/20 01:42:03;;;;;;;9.82;6.20;;;;;;;6.56;48.02;101636.28;5113331;28;20051;-60
2022/03/20 01:44:35;;;;;;;9.05;6.40;;;;;;;6.53;49.04;101630.22;5112117;28;20063;-61
2022/03/20 01:47:05;;;;;;;11.70;6.65;;;;;;;6.51;48.51;101628.47;5112401;28;20048;-60
2022/03/20 01:49:32;;;;;;;11.77;6.07;;;;;;;6.51;48.09;101614.53;5113234;28;20454;-62
2022/03/20 01:52:10;;;;;;;12.85;6.90;;;;;;;6.50;48.08;101625.84;5113215;28;20438;-60
2022/03/20 01:54:38;;;;;;;15.10;6.70;;;;;;;6.47;48.15;101613.66;5113743;27;20044;-61
2022/03/20 01:57:07;;;;;;;13.68;6.60;;;;;;;6.46;47.81;101611.06;5113203;28;20118;-60
2022/03/20 01:59:34;;;;;;;11.30;6.93;;;;;;;6.43;48.10;101603.28;5111731;28;20052;-61
2022/03/20 02:02:03;;;;;;;12.88;6.88;;;;;;;6.40;48.36;101604.16;5112919;28;20051;-61
2022/03/20 02:04:30;;;;;;;12.55;7.20;;;;;;;6.39;48.32;101594.56;5113247;28;20082;-63
2022/03/20 02:06:57;;;;;;;13.30;6.75;;;;;;;6.37;48.28;101593.72;5113108;28;20092;-60
2022/03/20 02:09:24;;;;;;;12.20;7.03;;;;;;;6.35;48.19;101592.84;5112723;28;20055;-62
2022/03/20 02:11:51;;;;;;;12.55;7.38;;;;;;;6.33;48.36;101592.03;5112665;28;20109;-61
2022/03/20 02:14:18;;;;;;;12.00;7.57;;;;;;;6.31;48.40;101592.03;5111754;28;20065;-62
2022/03/20 02:16:45;;;;;;;12.35;7.22;;;;;;;6.28;48.06;101586.81;5113007;28;20445;-60
2022/03/20 02:19:13;;;;;;;16.75;7.82;;;;;;;6.25;48.34;101579.03;5112759;28;20568;-59
2022/03/20 02:21:46;;;;;;;13.20;8.23;;;;;;;6.20;48.91;101573.81;5111561;28;20456;-62
2022/03/20 02:24:42;;;;;;;15.13;8.32;;;;;;;6.16;49.07;101576.50;5111760;28;20545;-61
2022/03/20 02:27:23;;;;;;;13.80;7.97;;;;;;;6.14;49.02;101566.06;5113199;28;20104;-60
2022/03/20 02:29:55;;;;;;;15.68;7.97;;;;;;;6.13;48.14;101570.41;5111301;28;20055;-60
2022/03/20 02:32:27;;;;;;;16.65;8.32;;;;;;;6.08;48.99;101561.75;5112831;28;20458;-60
2022/03/20 02:34:56;;;;;;;10.30;6.45;;;;;;;6.07;47.96;101557.41;5112601;28;20694;-60
2022/03/20 02:37:24;;;;;;;17.95;8.20;;;;;;;6.05;48.09;101553.91;5111519;28;20055;-59
2022/03/20 02:39:55;;;;;;;14.80;7.93;;;;;;;6.01;48.76;101560.00;5112365;28;20073;-61
2022/03/20 02:42:23;;;;;;;14.85;8.15;;;;;;;5.99;48.21;101554.78;5111321;28;20052;-60
2022/03/20 02:45:03;;;;;;;13.60;8.30;;;;;;;5.94;49.14;101545.28;5112254;28;20051;-60
2022/03/20 02:47:35;;;;;;;17.27;8.40;;;;;;;5.93;48.51;101538.31;5110748;28;20047;-60
2022/03/20 02:50:14;;;;;;;16.30;9.25;;;;;;;5.89;48.88;101541.81;5110586;28;20047;-61
2022/03/20 02:52:48;;;;;;;18.73;9.13;;;;;;;5.85;48.59;101536.63;5110988;28;20458;-61
2022/03/20 02:55:18;;;;;;;17.70;9.60;;;;;;;5.86;48.22;101540.09;5110832;28;20397;-60
2022/03/20 02:57:47;;;;;;;16.55;9.57;;;;;;;5.83;47.99;101535.78;5111324;28;20043;-61
2022/03/20 03:00:17;;;;;;;16.13;9.55;;;;;;;5.82;48.06;101534.03;5111957;28;20117;-60
2022/03/20 03:02:45;;;;;;;16.52;9.48;;;;;;;5.81;48.01;101537.53;5111833;28;20047;-59
2022/03/20 03:05:14;;;;;;;14.70;9.82;;;;;;;5.79;47.87;101528.00;5111842;28;20055;-60
2022/03/20 03:13:15;;;;;;;18.63;9.20;;;;;;;5.73;47.76;101526.28;5111841;28;20055;-59
2022/03/20 03:15:42;;;;;;;16.27;9.80;;;;;;;5.71;47.61;101525.41;5111652;28;20048;-60
2022/03/20 03:18:09;;;;;;;15.68;9.40;;;;;;;5.67;47.64;101532.41;5110380;28;20094;-60
2022/03/20 03:20:36;;;;;;;13.98;9.13;;;;;;;5.65;47.77;101534.19;5110173;28;20050;-60
2022/03/20 03:23:04;;;;;;;17.65;10.40;;;;;;;5.63;47.66;101527.22;5111880;28;20105;-61
2022/03/20 03:25:32;;;;;;;16.38;9.80;;;;;;;5.60;47.68;101523.75;5110574;28;20047;-60
2022/03/20 03:27:59;;;;;;;17.15;10.38;;;;;;;5.57;47.95;101520.31;5111215;28;20062;-61
2022/03/20 03:30:26;;;;;;;20.13;10.35;;;;;;;5.55;47.72;101520.31;5111441;28;20058;-62
2022/03/20 03:32:52;;;;;;;19.02;11.07;;;;;;;5.53;47.86;101516.84;5111360;28;20044;-61
2022/03/20 03:38:05;;;;;;;17.27;10.18;;;;;;;5.52;47.48;101509.88;5111597;28;20233;-60
2022/03/20 03:40:32;;;;;;;20.35;10.38;;;;;;;5.50;47.68;101506.44;5111176;28;20044;-60
2022/03/20 03:42:59;;;;;;;15.85;9.70;;;;;;;5.50;47.68;101505.56;5111218;28;20134;-62
2022/03/20 03:45:26;;;;;;;16.10;10.50;;;;;;;5.49;47.29;101489.00;5111195;28;20044;-60
2022/03/20 03:47:52;;;;;;;20.17;10.60;;;;;;;5.48;47.65;101489.91;5111291;28;20047;-59
2022/03/20 03:50:19;;;;;;;19.40;11.43;;;;;;;5.49;47.51;101483.78;5111028;28;20047;-60
2022/03/20 03:52:47;;;;;;;21.08;11.52;;;;;;;5.47;47.47;101482.94;5109810;28;20519;-59
2022/03/20 03:55:14;;;;;;;17.25;10.45;;;;;;;5.45;47.42;101477.72;5109894;28;20100;-59
2022/03/20 03:57:51;;;;;;;18.02;10.60;;;;;;;5.41;47.91;101464.69;5111017;28;20047;-60
2022/03/20 04:00:19;;;;;;;17.40;11.60;;;;;;;5.44;47.34;101469.91;5108981;28;20056;-61
2022/03/20 04:02:47;;;;;;;20.83;11.77;;;;;;;5.43;47.20;101460.34;5110902;28;20044;-60
2022/03/20 04:05:17;;;;;;;17.77;11.05;;;;;;;5.40;47.23;101453.41;5109593;28;20059;-60
2022/03/20 04:07:45;;;;;;;21.20;11.68;;;;;;;5.39;47.39;101456.91;5110881;28;20056;-60
2022/03/20 04:10:12;;;;;;;18.65;10.70;;;;;;;5.39;47.13;101448.19;5109340;28;20089;-60
2022/03/20 04:12:40;;;;;;;20.15;11.68;;;;;;;5.38;47.08;101454.28;5110598;28;20048;-62
2022/03/20 04:15:08;;;;;;;19.23;10.80;;;;;;;5.37;47.10;101442.09;5109516;28;20051;-60
2022/03/20 04:17:34;;;;;;;16.35;11.20;;;;;;;5.37;47.10;101444.69;5109538;28;20101;-61
2022/03/20 04:20:02;;;;;;;21.58;12.07;;;;;;;5.34;47.10;101441.25;5110944;28;20320;-60
2022/03/20 04:22:29;;;;;;;20.70;11.85;;;;;;;5.33;46.99;101431.69;5110522;28;20044;-61
2022/03/20 04:24:56;;;;;;;20.42;11.57;;;;;;;5.30;47.01;101426.50;5110570;28;20105;-60
2022/03/20 04:27:23;;;;;;;20.42;12.45;;;;;;;5.29;46.79;101422.16;5110857;28;20105;-60
2022/03/20 04:29:50;;;;;;;17.70;11.50;;;;;;;5.27;47.05;101423.03;5110619;28;20059;-62
2022/03/20 04:32:17;;;;;;;19.88;11.20;;;;;;;5.27;47.18;101426.50;5110607;28;20052;-60
2022/03/20 04:34:43;;;;;;;22.30;11.73;;;;;;;5.26;46.97;101416.94;5110567;28;20055;-62
2022/03/20 04:37:13;;;;;;;16.25;10.65;;;;;;;5.25;47.03;101417.84;5110560;28;20120;-60
2022/03/20 04:39:40;;;;;;;18.13;10.82;;;;;;;5.24;46.85;101410.00;5109132;28;20055;-60
2022/03/20 04:42:08;;;;;;;18.48;11.93;;;;;;;5.23;46.80;101416.97;5110816;28;20040;-60
2022/03/20 04:44:35;;;;;;;21.08;11.70;;;;;;;5.23;46.85;101414.34;5109306;28;20055;-60
2022/03/20 04:47:02;;;;;;;21.23;12.07;;;;;;;5.20;46.72;101415.25;5109169;28;20063;-60
2022/03/20 05:00:28;;;;;;;26.95;11.40;;;;;;;5.13;46.50;101399.66;5110008;28;20052;-60
2022/03/20 05:02:55;;;;;;;25.20;12.23;;;;;;;5.09;46.51;101396.22;5110560;28;20040;-61
2022/03/20 05:05:21;;;;;;;20.42;11.77;;;;;;;5.07;46.62;101396.22;5110176;28;20051;-60
2022/03/20 05:07:48;;;;;;;21.25;12.10;;;;;;;5.07;46.29;101392.72;5110345;28;20117;-61
2022/03/20 05:15:45;;;;;;;21.40;11.50;;;;;;;5.03;46.19;101385.78;5113991;28;20089;-58
2022/03/20 05:18:12;;;;;;;19.08;11.43;;;;;;;5.00;46.23;101391.91;5114049;28;20051;-60
2022/03/20 05:20:39;;;;;;;18.70;11.77;;;;;;;4.97;46.26;101399.75;5113807;28;20047;-59
2022/03/20 05:23:05;;;;;;;19.92;12.90;;;;;;;4.95;46.27;101391.06;5113916;28;20089;-59
2022/03/20 05:25:32;;;;;;;20.63;12.50;;;;;;;4.92;46.15;101393.69;5113792;27;20055;-63
2022/03/20 05:27:59;;;;;;;21.63;12.13;;;;;;;4.90;46.33;101385.88;5113487;28;20183;-60
2022/03/20 05:30:25;;;;;;;20.48;12.20;;;;;;;4.89;46.42;101385.88;5113762;28;20051;-61
2022/03/20 05:32:52;;;;;;;20.27;12.27;;;;;;;4.86;46.49;101378.09;5113752;28;20100;-59
2022/03/20 05:35:19;;;;;;;18.80;12.25;;;;;;;4.85;46.23;101371.16;5113640;27;20065;-60
2022/03/20 05:37:46;;;;;;;20.23;12.32;;;;;;;4.82;46.40;101370.28;5113763;28;20047;-60
2022/03/20 05:40:14;;;;;;;21.05;11.95;;;;;;;4.81;46.50;101373.78;5113460;27;20055;-61
2022/03/20 05:42:42;;;;;;;23.75;13.18;;;;;;;4.80;46.13;101377.28;5112482;28;20044;-62
2022/03/20 05:45:12;;;;;;;23.05;12.27;;;;;;;4.78;46.20;101376.41;5112410;28;20071;-59
2022/03/20 05:47:43;;;;;;;20.98;12.60;;;;;;;4.76;46.27;101375.56;5113389;28;20051;-61
2022/03/20 05:50:10;;;;;;;24.55;12.80;;;;;;;4.75;46.36;101372.94;5113295;28;20047;-60
2022/03/20 05:52:37;;;;;;;24.35;12.55;;;;;;;4.75;46.04;101371.19;5113301;28;20094;-62
2022/03/20 05:55:05;;;;;;;20.55;11.40;;;;;;;4.73;46.39;101367.75;5113600;28;20286;-62
2022/03/20 06:00:25;;;;;;;22.38;12.85;;;;;;;4.70;45.87;101383.41;5113095;28;20565;-61
2022/03/20 06:02:52;;;;;;;24.52;13.25;;;;;;;4.69;45.89;101376.47;5111580;28;20492;-60
2022/03/20 06:05:19;;;;;;;21.08;12.77;;;;;;;4.68;45.97;101374.75;5113118;28;20083;-59
2022/03/20 06:07:47;;;;;;;22.38;13.07;;;;;;;4.66;45.75;101371.25;5111824;28;20546;-60
2022/03/20 06:10:16;;;;;;;24.88;13.20;;;;;;;4.65;46.25;101364.31;5111587;28;20073;-59
2022/03/20 06:12:43;;;;;;;24.70;12.90;;;;;;;4.65;46.20;101367.81;5111643;28;20105;-59
2022/03/20 06:15:11;;;;;;;24.98;13.55;;;;;;;4.64;46.19;101358.22;5112988;28;20108;-60
2022/03/20 06:17:46;;;;;;;23.65;13.02;;;;;;;4.62;46.40;101361.72;5111376;28;20055;-61
2022/03/20 06:20:16;;;;;;;23.35;13.20;;;;;;;4.62;46.25;101359.97;5112862;28;20641;-59
2022/03/20 06:22:44;;;;;;;24.50;13.93;;;;;;;4.63;46.06;101356.50;5112291;28;20044;-59
2022/03/20 06:25:13;;;;;;;21.25;12.95;;;;;;;4.64;46.22;101352.16;5111808;28;20048;-60
2022/03/20 06:27:44;;;;;;;22.05;12.65;;;;;;;4.64;46.21;101346.94;5112729;28;20137;-59
2022/03/20 06:30:13;;;;;;;21.70;13.52;;;;;;;4.65;46.41;101346.06;5111347;28;20055;-61
2022/03/20 06:32:44;;;;;;;20.73;13.10;;;;;;;4.66;46.12;101340.84;5112734;28;20491;-59
2022/03/20 06:35:11;;;;;;;19.95;12.57;;;;;;;4.69;46.27;101342.56;5111535;28;20043;-58
2022/03/20 06:37:43;;;;;;;19.63;12.55;;;;;;;4.69;46.33;101339.94;5112784;27;20055;-62
2022/03/20 06:40:11;;;;;;;22.92;13.95;;;;;;;4.73;46.08;101341.66;5112687;28;20088;-60
2022/03/20 06:42:37;;;;;;;21.90;12.77;;;;;;;4.76;45.98;101328.59;5112403;27;20044;-60
2022/03/20 06:45:08;;;;;;;23.92;13.23;;;;;;;4.78;46.07;101321.63;5112493;28;20047;-61
2022/03/20 06:47:35;;;;;;;22.95;13.60;;;;;;;4.83;45.95;101318.97;5112582;28;20043;-60
2022/03/20 06:50:04;;;;;;;22.58;13.15;;;;;;;4.86;46.04;101320.69;5112208;28;20059;-59
2022/03/20 06:52:31;;;;;;;20.73;13.45;;;;;;;4.89;45.75;101310.22;5112394;28;20043;-60
2022/03/20 06:54:59;;;;;;;25.10;13.55;;;;;;;4.91;45.58;101311.09;5112398;28;20112;-60
2022/03/20 06:57:27;;;;;;;22.90;14.52;;;;;;;4.94;45.91;101316.28;5112135;28;20681;-59
2022/03/20 06:59:59;;;;;;;22.63;12.75;;;;;;;4.96;45.81;101306.69;5111697;28;20515;-62
2022/03/20 07:02:27;;;;;;;22.90;13.63;;;;;;;5.00;45.83;101304.91;5110570;28;20052;-60
2022/03/20 07:04:54;;;;;;;23.73;13.85;;;;;;;5.03;45.79;101308.38;5110618;28;20503;-60
2022/03/20 07:07:22;;;;;;;20.42;13.73;;;;;;;5.06;45.70;101303.13;5111644;28;20047;-59
2022/03/20 07:09:50;;;;;;;24.65;13.60;;;;;;;5.10;45.45;101303.97;5111899;28;20051;-60
2022/03/20 07:12:17;;;;;;;23.10;14.55;;;;;;;5.14;45.65;101316.09;5110544;28;20052;-59
2022/03/20 07:14:44;;;;;;;22.33;13.45;;;;;;;5.18;45.76;101311.72;5110653;28;20511;-59
2022/03/20 07:17:13;;;;;;;25.33;14.82;;;;;;;5.21;45.80;101309.09;5110759;28;20491;-61
2022/03/20 07:19:44;;;;;;;22.20;13.18;;;;;;;5.24;45.49;101319.50;5110419;28;20047;-61
2022/03/20 07:22:13;;;;;;;25.20;13.40;;;;;;;5.28;45.63;101312.50;5111554;28;20453;-59
2022/03/20 07:24:46;;;;;;;22.45;13.82;;;;;;;5.31;45.71;101312.47;5111946;28;20570;-60
2022/03/20 07:29:58;;;;;;;26.55;14.57;;;;;;;5.39;45.46;101315.88;5111734;28;20043;-58
2022/03/20 07:32:25;;;;;;;22.70;13.48;;;;;;;5.44;45.77;101310.59;5111671;28;20523;-59
2022/03/20 07:34:52;;;;;;;24.80;14.02;;;;;;;5.50;45.84;101294.88;5110914;28;20056;-59
2022/03/20 07:37:21;;;;;;;21.75;14.05;;;;;;;5.57;45.63;101303.50;5111447;28;20044;-59
2022/03/20 07:39:50;;;;;;;23.73;13.75;;;;;;;5.64;45.39;101291.25;5110024;28;20051;-59
2022/03/20 07:42:18;;;;;;;27.38;14.10;;;;;;;5.69;45.63;101287.66;5109774;28;20054;-59
2022/03/20 07:44:46;;;;;;;21.23;13.32;;;;;;;5.79;45.56;101283.19;5111356;28;20044;-59
2022/03/20 07:47:18;;;;;;;24.58;14.80;;;;;;;5.84;45.56;101276.16;5111200;28;20050;-60
2022/03/20 07:49:47;;;;;;;22.95;13.98;;;;;;;5.93;45.34;101269.09;5109991;28;20055;-59
2022/03/20 07:52:14;;;;;;;22.67;14.38;;;;;;;6.00;45.22;101265.53;5111324;28;20048;-60
2022/03/20 07:54:41;;;;;;;21.90;13.82;;;;;;;6.06;45.17;101251.53;5111132;28;20101;-59
2022/03/20 07:57:08;;;;;;;24.58;14.93;;;;;;;6.10;44.95;101259.28;5109597;28;20483;-61
2022/03/20 07:59:35;;;;;;;24.92;14.85;;;;;;;6.16;44.76;101260.97;5110526;28;20450;-60
2022/03/20 08:02:03;;;;;;;24.10;14.40;;;;;;;6.21;44.86;101263.53;5110972;28;20073;-59
2022/03/20 08:04:31;;;;;;;22.63;15.18;;;;;;;6.24;44.86;101274.78;5111086;28;20510;-60
2022/03/20 08:06:58;;;;;;;25.73;14.45;;;;;;;6.31;44.77;101277.34;5111029;28;20043;-60
2022/03/20 08:09:28;;;;;;;24.67;15.52;;;;;;;6.36;44.76;101271.13;5109436;28;20059;-61
2022/03/20 08:11:55;;;;;;;22.42;14.40;;;;;;;6.42;44.52;101278.03;5109411;28;20555;-60
2022/03/20 08:14:26;;;;;;;22.05;14.23;;;;;;;6.49;44.39;101289.25;5109841;28;20055;-62
2022/03/20 08:16:53;;;;;;;25.90;15.82;;;;;;;6.54;44.36;101260.44;5110839;28;20513;-60
2022/03/20 08:19:22;;;;;;;23.40;14.80;;;;;;;6.58;44.59;101267.34;5110739;28;20088;-61
2022/03/20 08:21:49;;;;;;;22.85;14.65;;;;;;;6.63;43.99;101273.34;5110722;28;20514;-61
2022/03/20 08:24:17;;;;;;;30.48;15.82;;;;;;;6.67;44.17;101271.53;5110666;28;20138;-62
2022/03/20 08:26:44;;;;;;;26.20;14.52;;;;;;;6.72;43.85;101264.47;5109238;28;20047;-60
2022/03/20 08:29:13;;;;;;;24.30;14.20;;;;;;;6.77;43.82;101260.91;5109429;28;20055;-60
2022/03/20 08:31:47;;;;;;;24.98;15.48;;;;;;;6.83;43.88;101266.91;5110768;28;20191;-59
2022/03/20 08:34:15;;;;;;;22.08;14.82;;;;;;;6.90;43.92;101269.44;5109592;28;20048;-59
2022/03/20 08:36:44;;;;;;;23.05;15.32;;;;;;;6.99;44.10;101264.91;5110585;28;20048;-59
2022/03/20 08:39:11;;;;;;;23.95;15.18;;;;;;;7.08;43.77;101262.13;5110010;28;20051;-62
2022/03/20 08:41:39;;;;;;;24.50;14.80;;;;;;;7.18;43.79;101257.59;5109075;28;20510;-60
2022/03/20 08:44:08;;;;;;;29.75;16.70;;;;;;;7.28;44.04;101250.41;5110436;28;20059;-60
2022/03/20 08:46:35;;;;;;;23.95;14.75;;;;;;;7.37;43.52;101239.75;5112580;28;20058;-59
2022/03/20 08:49:05;;;;;;;24.98;15.75;;;;;;;7.49;43.17;101237.78;5114568;28;20053;-62
2022/03/20 08:51:33;;;;;;;26.50;16.50;;;;;;;7.57;43.01;101243.75;5114229;28;20056;-61
2022/03/20 08:54:01;;;;;;;25.73;16.02;;;;;;;7.64;42.91;101247.97;5114838;28;20051;-60
2022/03/20 08:56:28;;;;;;;23.40;14.80;;;;;;;7.74;42.64;101250.41;5113395;28;20043;-58
2022/03/20 08:58:55;;;;;;;26.25;15.63;;;;;;;7.81;42.60;101242.34;5113666;28;20058;-60
2022/03/20 09:01:22;;;;;;;23.77;15.73;;;;;;;7.88;42.81;101240.47;5114702;28;20689;-60
2022/03/20 09:03:50;;;;;;;26.83;15.48;;;;;;;7.97;43.02;101228.06;5112932;28;20056;-62
2022/03/20 09:06:18;;;;;;;28.15;15.88;;;;;;;8.03;42.63;101226.16;5112939;28;20131;-60
2022/03/20 09:08:46;;;;;;;25.05;16.33;;;;;;;8.12;42.44;101219.84;5113021;28;20709;-61
2022/03/20 09:11:12;;;;;;;25.17;15.77;;;;;;;8.21;42.24;101208.25;5114170;28;20132;-59
2022/03/20 09:13:39;;;;;;;23.92;15.27;;;;;;;8.29;42.46;101214.19;5114538;27;20066;-62
2022/03/20 09:19:00;;;;;;;26.92;16.02;;;;;;;8.45;42.16;101209.44;5113922;28;20055;-62
2022/03/20 09:21:28;;;;;;;26.50;16.60;;;;;;;8.54;41.89;101194.41;5114026;28;20552;-60
2022/03/20 09:23:55;;;;;;;26.77;15.63;;;;;;;8.61;41.76;101195.97;5112943;28;20044;-60
2022/03/20 09:26:21;;;;;;;25.05;16.05;;;;;;;8.68;41.80;101196.69;5114294;28;20121;-62
2022/03/20 09:28:49;;;;;;;27.33;16.67;;;;;;;8.75;41.91;101200.00;5113920;28;20056;-60
2022/03/20 09:31:16;;;;;;;24.88;15.75;;;;;;;8.84;41.54;101202.38;5112568;28;20062;-60
2022/03/20 09:33:43;;;;;;;24.95;16.73;;;;;;;8.91;41.96;101184.69;5112580;28;20056;-67
2022/03/20 09:36:10;;;;;;;28.15;15.63;;;;;;;8.98;41.50;101176.59;5113874;28;20055;-63
2022/03/20 09:38:37;;;;;;;30.15;18.30;;;;;;;9.06;41.55;101172.91;5113934;28;20086;-61
2022/03/20 09:41:11;;;;;;;26.33;16.55;;;;;;;9.12;41.32;101159.59;5112407;28;20052;-62
2022/03/20 09:43:44;;;;;;;26.75;16.02;;;;;;;9.19;40.51;101155.06;5113323;28;20108;-61
2022/03/20 09:46:15;;;;;;;26.58;17.00;;;;;;;9.28;40.71;101156.53;5113598;28;20044;-61
2022/03/20 09:48:43;;;;;;;23.10;15.82;;;;;;;9.35;41.18;101152.84;5113562;28;20495;-63
2022/03/20 09:51:10;;;;;;;26.42;17.40;;;;;;;9.43;40.82;101158.72;5111941;28;20116;-60
2022/03/20 09:53:36;;;;;;;28.40;17.02;;;;;;;9.50;40.72;101162.88;5112163;28;20059;-61
2022/03/20 09:56:06;;;;;;;24.75;16.27;;;;;;;9.59;41.00;101153.00;5113434;28;20089;-61
2022/03/20 09:58:32;;;;;;;27.83;17.48;;;;;;;9.65;40.69;101153.66;5112032;28;20522;-60
2022/03/20 10:01:01;;;;;;;28.02;16.35;;;;;;;9.74;40.96;101144.66;5112961;28;20047;-61
2022/03/20 10:03:29;;;;;;;26.42;16.30;;;;;;;9.85;40.67;101143.44;5113287;28;20150;-63
2022/03/20 10:06:15;;;;;;;27.42;16.83;;;;;;;9.91;40.95;101143.25;5113225;28;20511;-62
2022/03/20 10:08:58;;;;;;;25.42;16.05;;;;;;;10.04;40.75;101133.19;5112944;28;20047;-61
2022/03/20 10:11:26;;;;;;;;;;;;;;;10.16;41.07;101126.66;5113617;28;20062;-60
2022/03/20 10:14:20;;;;;;;23.42;15.98;;;;;;;10.26;40.24;101122.81;5113295;28;19926;-62
2022/03/20 10:17:06;;;;;;;24.25;15.75;;;;;;;10.35;40.26;101119.00;5111503;28;20051;-60
2022/03/20 10:19:34;;;;;;;27.30;16.98;;;;;;;10.46;40.43;101121.31;5112950;28;20056;-61
2022/03/20 10:22:02;;;;;;;27.63;17.63;;;;;;;10.55;40.42;101112.25;5145988;27;20057;-62
2022/03/20 10:24:30;;;;;;;26.67;17.33;;;;;;;10.64;40.17;101111.03;5112649;28;20889;-61
2022/03/20 10:26:59;;;;;;;27.50;17.35;;;;;;;10.72;39.84;101098.47;5111461;28;20080;-61
2022/03/20 10:29:31;;;;;;;22.75;16.27;;;;;;;10.82;39.85;101093.72;5112432;28;20052;-60
2022/03/20 10:32:08;;;;;;;21.80;15.27;;;;;;;10.93;39.81;101091.56;5111404;28;20051;-60
2022/03/20 10:34:52;;;;;;;29.48;17.25;;;;;;;11.03;39.44;101099.97;5112859;28;20055;-60
2022/03/20 10:37:21;;;;;;;25.20;16.27;;;;;;;11.18;39.47;101106.44;5112670;28;20055;-60
2022/03/20 10:39:47;;;;;;;27.33;17.08;;;;;;;11.31;39.72;101114.75;5111019;28;20520;-62
2022/03/20 10:42:15;;;;;;;23.35;16.38;;;;;;;11.41;39.85;101088.91;5112379;28;20116;-60
2022/03/20 10:44:42;;;;;;;24.98;17.48;;;;;;;11.55;39.64;101084.84;5111330;28;20044;-60
2022/03/20 10:47:13;;;;;;;26.55;17.58;;;;;;;11.68;39.44;101093.13;5112482;28;20461;-59
2022/03/20 10:49:47;;;;;;;25.58;17.42;;;;;;;11.78;39.28;101073.34;5111121;28;20047;-61
2022/03/20 10:52:21;;;;;;;27.60;17.40;;;;;;;11.90;39.07;101069.38;5111020;28;20101;-63
2022/03/20 10:54:53;;;;;;;27.17;18.77;;;;;;;12.02;38.72;101065.34;5112406;28;20055;-62
2022/03/20 10:57:21;;;;;;;24.75;17.15;;;;;;;12.15;38.73;101059.59;5111072;28;20055;-61
2022/03/20 11:00:00;;;;;;;23.58;17.10;;;;;;;12.24;38.77;101051.28;5111968;28;20629;-61
2022/03/20 11:02:27;;;;;;;26.02;18.10;;;;;;;12.38;38.93;101035.69;5110636;28;20040;-61
2022/03/20 11:04:54;;;;;;;28.92;17.98;;;;;;;12.51;38.60;101040.44;5111921;28;20134;-61
2022/03/20 11:07:23;;;;;;;25.23;17.48;;;;;;;12.62;38.49;101054.03;5112249;28;20449;-62
2022/03/20 11:09:51;;;;;;;26.35;18.08;;;;;;;12.76;38.66;101076.31;5111486;28;20122;-60
2022/03/20 11:12:28;;;;;;;26.17;18.10;;;;;;;12.88;37.69;101080.19;5110582;28;20083;-60
2022/03/20 11:14:58;;;;;;;26.00;17.92;;;;;;;13.06;38.04;101086.41;5110589;28;20544;-61
2022/03/20 11:17:32;;;;;;;23.42;16.60;;;;;;;13.24;37.89;101091.78;5111618;28;20054;-61
2022/03/20 11:20:01;;;;;;;29.25;18.35;;;;;;;13.46;38.47;101104.00;5144662;27;20443;-61
2022/03/20 11:22:29;;;;;;;27.10;17.80;;;;;;;13.77;38.14;101090.19;5110609;28;20754;-61
2022/03/20 11:24:56;;;;;;;26.42;18.80;;;;;;;14.12;38.27;101084.03;5110434;28;20051;-60
2022/03/20 11:27:27;;;;;;;23.52;18.10;;;;;;;14.51;37.47;101102.41;5111804;28;20084;-62
2022/03/20 11:30:03;;;;;;;26.90;18.80;;;;;;;14.95;37.18;101098.38;5111272;28;20074;-60
2022/03/20 11:32:30;;;;;;;24.20;17.38;;;;;;;15.44;37.47;101091.31;5110637;28;20043;-62
2022/03/20 11:34:57;;;;;;;22.90;17.70;;;;;;;15.88;37.32;101066.66;5110234;28;20582;-62
2022/03/20 11:37:41;;;;;;;26.27;18.35;;;;;;;16.31;36.20;101073.06;5111521;28;20052;-60
2022/03/20 11:40:12;;;;;;;22.02;17.25;;;;;;;16.74;36.01;101063.41;5111525;28;20441;-60
2022/03/20 11:42:41;;;;;;;22.25;17.92;;;;;;;17.11;35.67;101052.25;5109943;28;20461;-60
2022/03/20 11:45:10;;;;;;;28.95;17.85;;;;;;;17.41;34.61;101061.88;5111343;28;20465;-61
2022/03/20 11:47:42;;;;;;;22.83;17.67;;;;;;;17.70;34.03;101069.78;5110074;28;20043;-61
2022/03/20 11:50:09;;;;;;;22.60;17.95;;;;;;;17.97;34.16;101071.53;5111095;28;20117;-61
2022/03/20 11:52:48;;;;;;;21.27;17.33;;;;;;;18.27;33.51;101066.94;5110012;28;20058;-60
2022/03/20 11:55:25;;;;;;;21.85;16.95;;;;;;;18.66;33.28;101050.94;5111123;28;20059;-60
2022/03/20 11:57:52;;;;;;;22.00;17.45;;;;;;;19.09;33.25;101044.34;5111043;28;20070;-61
2022/03/20 12:00:23;;;;;;;22.08;17.08;;;;;;;19.50;32.58;101047.63;5110907;28;20113;-60